Time;durP1;ratioP1;P1;durP2;ratioP2;P2;SDS_P1;SDS_P2;PMS_P1;PMS_P2;Temp;Humidity;BMP_temperature;BMP_pressure;BME280_temperature;BME280_humidity;BME280_pressure;Samples;Min_cycle;Max_cycle;Signal;HPM_P1;HPM_P2
2023/01/13 00:01:39;;;;;;;12.02;2.10;;;;;;;;;;4938393;29;20215;-68
2023/01/13 00:04:04;;;;;;;7.75;2.38;;;;;;;;;;4937814;29;20214;-68
2023/01/13 00:06:30;;;;;;;8.75;2.50;;;;;;;;;;4946192;29;20218;-68
2023/01/13 00:08:56;;;;;;;8.88;2.33;;;;;;;;;;4957325;29;20237;-68
2023/01/13 00:11:21;;;;;;;12.40;2.83;;;;;;;;;;4956757;29;20297;-68
2023/01/13 00:13:47;;;;;;;8.82;2.30;;;;;;;;;;4956436;29;20297;-68
2023/01/13 00:16:14;;;;;;;8.98;2.38;;;;;;;;;;4956805;29;20580;-68
2023/01/13 00:18:39;;;;;;;8.35;2.13;;;;;;;;;;4956316;29;20215;-68
2023/01/13 00:21:05;;;;;;;8.40;2.40;;;;;;;;;;4956602;29;20226;-68
2023/01/13 00:23:31;;;;;;;13.77;3.15;;;;;;;;;;4957118;29;20597;-68
2023/01/13 00:25:57;;;;;;;10.95;2.95;;;;;;;;;;4956192;29;20269;-68
2023/01/13 00:28:22;;;;;;;12.30;2.85;;;;;;;;;;4956374;29;20219;-68
2023/01/13 00:30:48;;;;;;;13.38;2.88;;;;;;;;;;4956892;29;20353;-68
2023/01/13 00:33:13;;;;;;;11.45;2.75;;;;;;;;;;4955620;29;20260;-68
2023/01/13 00:35:38;;;;;;;13.65;3.13;;;;;;;;;;4956755;28;20254;-68
2023/01/13 00:38:03;;;;;;;12.45;2.83;;;;;;;;;;4956396;29;20293;-68
2023/01/13 00:40:29;;;;;;;11.38;2.60;;;;;;;;;;4954623;29;20210;-68
2023/01/13 00:45:38;;;;;;;10.40;2.63;;;;;;;;;;4937308;29;20682;-68
2023/01/13 00:48:03;;;;;;;11.40;3.25;;;;;;;;;;4936604;29;20738;-68
2023/01/13 00:50:29;;;;;;;10.48;2.78;;;;;;;;;;4943644;28;20215;-68
2023/01/13 00:52:54;;;;;;;12.05;2.92;;;;;;;;;;4956360;28;20218;-68
2023/01/13 00:55:19;;;;;;;13.80;2.80;;;;;;;;;;4955644;28;20582;-68
2023/01/13 00:57:45;;;;;;;13.32;3.38;;;;;;;;;;4956566;28;20218;-68
2023/01/13 01:00:10;;;;;;;11.60;2.85;;;;;;;;;;4955380;28;20309;-68
2023/01/13 01:02:36;;;;;;;11.60;3.05;;;;;;;;;;4955714;28;20700;-68
2023/01/13 01:05:01;;;;;;;11.25;2.70;;;;;;;;;;4955949;28;20572;-66
2023/01/13 01:07:26;;;;;;;12.43;2.90;;;;;;;;;;4939971;29;20270;-68
2023/01/13 01:09:52;;;;;;;15.50;3.35;;;;;;;;;;4936529;29;20238;-68
2023/01/13 01:12:17;;;;;;;12.13;3.20;;;;;;;;;;4936727;29;20705;-68
2023/01/13 01:14:42;;;;;;;10.90;3.10;;;;;;;;;;4936978;29;20227;-68
2023/01/13 01:17:07;;;;;;;11.57;2.60;;;;;;;;;;4935834;29;20209;-68
2023/01/13 01:19:36;;;;;;;15.23;3.83;;;;;;;;;;4937307;29;20278;-68
2023/01/13 01:22:01;;;;;;;12.38;3.20;;;;;;;;;;4935570;29;20219;-67
2023/01/13 01:24:26;;;;;;;14.68;3.45;;;;;;;;;;4936930;29;20266;-68
2023/01/13 01:26:52;;;;;;;11.23;3.20;;;;;;;;;;4936886;29;20223;-68
2023/01/13 01:29:17;;;;;;;13.30;3.63;;;;;;;;;;4935300;29;20251;-68
2023/01/13 01:31:42;;;;;;;15.20;3.47;;;;;;;;;;4936804;29;20221;-68
2023/01/13 01:34:08;;;;;;;13.57;3.80;;;;;;;;;;4936250;29;20620;-68
2023/01/13 01:36:35;;;;;;;16.85;3.30;;;;;;;;;;4950851;28;20278;-68
2023/01/13 01:39:00;;;;;;;15.93;3.38;;;;;;;;;;4955750;28;20264;-68
2023/01/13 01:41:26;;;;;;;12.10;3.30;;;;;;;;;;4955330;28;20218;-68
2023/01/13 01:43:58;;;;;;;16.58;4.18;;;;;;;;;;4954966;28;20222;-68
2023/01/13 01:46:27;;;;;;;14.45;3.70;;;;;;;;;;4955106;28;20214;-68
2023/01/13 01:48:53;;;;;;;15.80;4.00;;;;;;;;;;4955693;28;20237;-68
2023/01/13 01:51:18;;;;;;;17.55;3.65;;;;;;;;;;4954080;28;20207;-68
2023/01/13 01:53:43;;;;;;;13.35;3.92;;;;;;;;;;4955603;28;20218;-68
2023/01/13 01:56:09;;;;;;;12.43;3.78;;;;;;;;;;4937793;28;20587;-67
2023/01/13 01:58:36;;;;;;;14.18;4.65;;;;;;;;;;4954686;28;20211;-68
2023/01/13 02:01:01;;;;;;;14.98;3.78;;;;;;;;;;4954780;28;20229;-68
2023/01/13 02:03:27;;;;;;;13.18;3.90;;;;;;;;;;4955408;28;20214;-68
2023/01/13 02:05:52;;;;;;;15.75;3.97;;;;;;;;;;4954417;28;20238;-68
2023/01/13 02:08:17;;;;;;;12.07;3.75;;;;;;;;;;4954708;28;20219;-68
2023/01/13 02:10:43;;;;;;;17.20;4.25;;;;;;;;;;4937221;29;20225;-68
2023/01/13 02:13:09;;;;;;;16.48;4.03;;;;;;;;;;4932370;28;20273;-67
2023/01/13 02:15:52;;;;;;;15.75;4.03;;;;;;;;;;4927036;29;20219;-68
2023/01/13 02:18:23;;;;;;;19.60;4.18;;;;;;;;;;4936734;28;20329;-68
2023/01/13 02:20:49;;;;;;;14.70;3.63;;;;;;;;;;4926796;29;20215;-68
2023/01/13 02:26:03;;;;;;;18.95;4.00;;;;;;;;;;4917593;29;20278;-68
2023/01/13 02:28:35;;;;;;;17.73;4.10;;;;;;;;;;4918329;29;20238;-69
2023/01/13 02:33:53;;;;;;;17.02;3.92;;;;;;;;;;4956516;28;20228;-69
2023/01/13 02:36:27;;;;;;;13.05;3.78;;;;;;;;;;4959469;28;20237;-68
2023/01/13 02:39:00;;;;;;;19.02;3.42;;;;;;;;;;4959356;28;20229;-68
2023/01/13 02:44:10;;;;;;;15.00;3.58;;;;;;;;;;4956749;28;20692;-68
2023/01/13 02:46:43;;;;;;;12.98;3.72;;;;;;;;;;4955857;28;20321;-69
2023/01/13 02:49:09;;;;;;;15.20;3.50;;;;;;;;;;4935752;28;20219;-68
2023/01/13 02:51:34;;;;;;;16.80;3.50;;;;;;;;;;4933108;28;20226;-68
2023/01/13 02:54:01;;;;;;;12.55;3.83;;;;;;;;;;4935255;28;20215;-68
2023/01/13 02:56:26;;;;;;;16.88;3.78;;;;;;;;;;4944348;28;20217;-69
2023/01/13 02:58:52;;;;;;;15.30;3.58;;;;;;;;;;4944506;28;20600;-70
2023/01/13 03:01:17;;;;;;;12.57;3.35;;;;;;;;;;4943416;28;20265;-69
2023/01/13 03:03:43;;;;;;;13.95;3.58;;;;;;;;;;4959217;28;20226;-69
2023/01/13 03:06:15;;;;;;;14.88;3.80;;;;;;;;;;4938683;28;20227;-69
2023/01/13 03:08:48;;;;;;;14.43;3.58;;;;;;;;;;4923785;29;20215;-70
2023/01/13 03:11:15;;;;;;;15.55;3.90;;;;;;;;;;4951188;28;20484;-69
2023/01/13 03:13:55;;;;;;;16.33;4.55;;;;;;;;;;4951362;28;20289;-69
2023/01/13 03:16:25;;;;;;;15.32;3.30;;;;;;;;;;4937752;28;20222;-70
2023/01/13 03:18:51;;;;;;;16.08;4.30;;;;;;;;;;4944535;28;20222;-69
2023/01/13 03:21:23;;;;;;;15.57;3.80;;;;;;;;;;4944356;28;20222;-69
2023/01/13 03:23:51;;;;;;;17.90;4.13;;;;;;;;;;4929825;29;20245;-70
2023/01/13 03:26:19;;;;;;;13.02;3.55;;;;;;;;;;4947534;28;20723;-69
2023/01/13 03:28:47;;;;;;;14.73;3.83;;;;;;;;;;4944955;28;20664;-69
2023/01/13 03:31:14;;;;;;;14.55;3.58;;;;;;;;;;4928132;29;20219;-69
2023/01/13 03:33:40;;;;;;;16.08;3.60;;;;;;;;;;4922465;29;20223;-69
2023/01/13 03:36:07;;;;;;;14.82;4.00;;;;;;;;;;4934829;28;20341;-69
2023/01/13 03:38:33;;;;;;;14.10;3.75;;;;;;;;;;4940841;28;20222;-69
2023/01/13 03:41:01;;;;;;;14.77;3.50;;;;;;;;;;4957822;28;20235;-70
2023/01/13 03:46:14;;;;;;;15.15;3.92;;;;;;;;;;4959970;28;20236;-69
2023/01/13 03:48:39;;;;;;;16.75;3.70;;;;;;;;;;4947945;28;20221;-70
2023/01/13 03:51:05;;;;;;;15.70;4.18;;;;;;;;;;4933372;28;20215;-69
2023/01/13 03:53:32;;;;;;;17.42;3.83;;;;;;;;;;4943721;28;20218;-69
2023/01/13 03:55:58;;;;;;;15.50;3.90;;;;;;;;;;4954852;28;20219;-69
2023/01/13 03:58:24;;;;;;;14.07;3.85;;;;;;;;;;4938827;28;20214;-70
2023/01/13 04:01:12;;;;;;;14.80;3.50;;;;;;;;;;4954626;28;20741;-69
2023/01/13 04:03:52;;;;;;;13.57;3.73;;;;;;;;;;4961862;28;20214;-69
2023/01/13 04:06:30;;;;;;;13.50;3.53;;;;;;;;;;4960133;28;20289;-69
2023/01/13 04:08:57;;;;;;;11.02;3.10;;;;;;;;;;4947689;28;20293;-69
2023/01/13 04:11:30;;;;;;;15.17;3.33;;;;;;;;;;4960657;28;20207;-70
2023/01/13 04:13:55;;;;;;;20.58;4.65;;;;;;;;;;4947789;28;20238;-69
2023/01/13 04:16:21;;;;;;;12.65;3.88;;;;;;;;;;4961219;28;20253;-69
2023/01/13 04:18:46;;;;;;;12.93;3.20;;;;;;;;;;4939367;28;20795;-70
2023/01/13 04:21:11;;;;;;;16.00;3.90;;;;;;;;;;4953617;28;20222;-69
2023/01/13 04:23:37;;;;;;;12.37;3.30;;;;;;;;;;4922314;29;20219;-70
2023/01/13 04:26:02;;;;;;;14.30;3.58;;;;;;;;;;4926803;29;20222;-69
2023/01/13 04:28:27;;;;;;;14.70;3.77;;;;;;;;;;4928789;29;20302;-69
2023/01/13 04:30:52;;;;;;;11.45;3.00;;;;;;;;;;4928470;29;20241;-69
2023/01/13 04:33:18;;;;;;;16.52;3.45;;;;;;;;;;4926182;29;20322;-69
2023/01/13 04:35:44;;;;;;;13.07;3.50;;;;;;;;;;4928179;29;20637;-69
2023/01/13 04:38:10;;;;;;;14.23;3.10;;;;;;;;;;4927952;29;20224;-69
2023/01/13 04:40:35;;;;;;;10.57;2.60;;;;;;;;;;4922180;29;20226;-69
2023/01/13 04:43:01;;;;;;;10.23;2.35;;;;;;;;;;4919693;29;20274;-68
2023/01/13 04:45:26;;;;;;;12.07;3.25;;;;;;;;;;4920468;29;20274;-69
2023/01/13 04:47:52;;;;;;;11.10;2.35;;;;;;;;;;4925190;29;20238;-69
2023/01/13 04:50:18;;;;;;;9.68;2.35;;;;;;;;;;4928091;28;20304;-69
2023/01/13 04:52:50;;;;;;;9.68;2.13;;;;;;;;;;4927833;29;20215;-69
2023/01/13 04:55:15;;;;;;;8.43;1.98;;;;;;;;;;4925957;29;20576;-69
2023/01/13 04:57:40;;;;;;;7.70;1.80;;;;;;;;;;4928108;28;20223;-69
2023/01/13 05:00:06;;;;;;;7.47;1.80;;;;;;;;;;4927004;29;20238;-69
2023/01/13 05:02:32;;;;;;;9.63;2.07;;;;;;;;;;4942839;28;20214;-69
2023/01/13 05:04:57;;;;;;;8.23;1.63;;;;;;;;;;4938861;28;20226;-69
2023/01/13 05:07:22;;;;;;;6.67;1.67;;;;;;;;;;4921838;28;20467;-69
2023/01/13 05:09:47;;;;;;;6.07;1.65;;;;;;;;;;4923414;29;20218;-69
2023/01/13 05:17:40;;;;;;;5.90;1.77;;;;;;;;;;4943306;28;20266;-69
2023/01/13 05:20:06;;;;;;;7.47;1.80;;;;;;;;;;4926747;28;20223;-68
2023/01/13 05:25:21;;;;;;;7.77;1.60;;;;;;;;;;4942235;28;20631;-68
2023/01/13 05:27:47;;;;;;;6.75;1.50;;;;;;;;;;4938027;28;20314;-69
2023/01/13 05:30:12;;;;;;;5.73;1.70;;;;;;;;;;4937299;28;20734;-69
2023/01/13 05:32:38;;;;;;;5.80;1.50;;;;;;;;;;4942857;28;20294;-69
2023/01/13 05:35:03;;;;;;;8.75;1.90;;;;;;;;;;4944900;28;20684;-69
2023/01/13 05:37:29;;;;;;;6.50;1.48;;;;;;;;;;4945981;28;20589;-69
2023/01/13 05:45:21;;;;;;;7.87;1.77;;;;;;;;;;4926472;29;20758;-68
2023/01/13 05:47:47;;;;;;;6.22;1.50;;;;;;;;;;4923694;29;20605;-69
2023/01/13 05:50:12;;;;;;;6.65;1.88;;;;;;;;;;4918724;28;20717;-69
2023/01/13 05:52:37;;;;;;;5.70;1.35;;;;;;;;;;4919159;29;20223;-69
2023/01/13 05:55:03;;;;;;;8.47;1.80;;;;;;;;;;4922564;29;20289;-68
2023/01/13 05:57:28;;;;;;;9.68;1.92;;;;;;;;;;4926504;29;20719;-69
2023/01/13 05:59:53;;;;;;;7.10;1.60;;;;;;;;;;4926914;29;20242;-69
2023/01/13 06:02:19;;;;;;;6.20;1.70;;;;;;;;;;4926096;29;20712;-68
2023/01/13 06:04:44;;;;;;;6.37;2.03;;;;;;;;;;4926175;29;20683;-69
2023/01/13 06:07:09;;;;;;;6.00;1.55;;;;;;;;;;4926082;29;20310;-69
2023/01/13 06:09:35;;;;;;;10.25;2.08;;;;;;;;;;4925588;29;20226;-69
2023/01/13 06:12:00;;;;;;;7.37;1.60;;;;;;;;;;4918253;29;20642;-69
2023/01/13 06:14:38;;;;;;;8.35;1.88;;;;;;;;;;4918301;29;20223;-69
2023/01/13 06:17:05;;;;;;;9.57;2.00;;;;;;;;;;4919656;29;20215;-68
2023/01/13 06:19:30;;;;;;;8.48;1.90;;;;;;;;;;4925613;29;20223;-69
2023/01/13 06:21:56;;;;;;;8.65;2.05;;;;;;;;;;4926412;29;20584;-69
2023/01/13 06:24:21;;;;;;;8.57;2.05;;;;;;;;;;4924127;29;20761;-69
2023/01/13 06:26:46;;;;;;;9.40;1.98;;;;;;;;;;4925080;29;20239;-69
2023/01/13 06:29:13;;;;;;;11.50;2.47;;;;;;;;;;4925784;29;20246;-68
2023/01/13 06:31:39;;;;;;;9.02;2.20;;;;;;;;;;4908600;29;20655;-69
2023/01/13 06:34:06;;;;;;;6.60;1.80;;;;;;;;;;4919637;29;20231;-68
2023/01/13 06:36:34;;;;;;;7.97;2.10;;;;;;;;;;4918110;28;20477;-69
2023/01/13 06:38:59;;;;;;;10.18;1.95;;;;;;;;;;4936210;28;20626;-69
2023/01/13 06:44:09;;;;;;;10.47;2.80;;;;;;;;;;4944220;28;20229;-68
2023/01/13 06:46:34;;;;;;;10.70;2.33;;;;;;;;;;4944422;28;20230;-68
2023/01/13 06:48:59;;;;;;;10.55;2.30;;;;;;;;;;4945128;28;21036;-69
2023/01/13 06:51:25;;;;;;;9.07;2.75;;;;;;;;;;4928578;28;20230;-69
2023/01/13 06:53:50;;;;;;;10.60;2.72;;;;;;;;;;4925152;29;20219;-68
2023/01/13 06:56:15;;;;;;;10.35;2.05;;;;;;;;;;4920146;29;20218;-69
2023/01/13 06:58:41;;;;;;;9.65;2.55;;;;;;;;;;4917445;29;20636;-69
2023/01/13 07:01:06;;;;;;;11.37;2.57;;;;;;;;;;4917109;29;20223;-68
2023/01/13 07:03:31;;;;;;;12.33;2.73;;;;;;;;;;4923169;29;20266;-69
2023/01/13 07:05:57;;;;;;;8.10;2.33;;;;;;;;;;4940139;28;20211;-69
2023/01/13 07:08:23;;;;;;;11.00;2.33;;;;;;;;;;4924924;28;20214;-69
2023/01/13 07:10:48;;;;;;;8.32;2.03;;;;;;;;;;4928996;29;20289;-69
2023/01/13 07:16:14;;;;;;;11.50;2.10;;;;;;;;;;4925096;29;20219;-71
2023/01/13 07:18:39;;;;;;;10.97;2.87;;;;;;;;;;4921356;29;21165;-67
2023/01/13 07:21:06;;;;;;;11.20;2.83;;;;;;;;;;4916936;29;20867;-67
2023/01/13 07:23:32;;;;;;;9.80;2.90;;;;;;;;;;4917624;29;20215;-66
2023/01/13 07:25:58;;;;;;;9.10;2.45;;;;;;;;;;4923232;29;20691;-66
2023/01/13 07:28:23;;;;;;;10.50;2.35;;;;;;;;;;4925405;29;20213;-67
2023/01/13 07:30:49;;;;;;;11.73;2.83;;;;;;;;;;4926614;29;20243;-66
2023/01/13 07:33:14;;;;;;;12.38;2.47;;;;;;;;;;4925464;29;20211;-65
2023/01/13 07:35:40;;;;;;;9.55;2.13;;;;;;;;;;4925280;29;20227;-66
2023/01/13 07:38:07;;;;;;;12.02;2.70;;;;;;;;;;4925815;29;20758;-66
2023/01/13 07:40:32;;;;;;;12.37;2.53;;;;;;;;;;4924860;29;20237;-66
2023/01/13 07:45:41;;;;;;;11.35;2.75;;;;;;;;;;4917457;29;20273;-66
2023/01/13 07:48:06;;;;;;;15.43;3.00;;;;;;;;;;4920575;29;20227;-66
2023/01/13 07:50:32;;;;;;;10.23;2.90;;;;;;;;;;4926521;28;20215;-65
2023/01/13 07:52:57;;;;;;;12.10;3.20;;;;;;;;;;4926076;29;21381;-66
2023/01/13 07:55:22;;;;;;;12.32;3.20;;;;;;;;;;4931124;29;20223;-66
2023/01/13 07:57:48;;;;;;;12.33;2.73;;;;;;;;;;4926066;29;20211;-66
2023/01/13 08:00:13;;;;;;;13.00;2.90;;;;;;;;;;4927751;29;20554;-66
2023/01/13 08:02:39;;;;;;;10.65;2.40;;;;;;;;;;4951439;28;20222;-67
2023/01/13 08:05:04;;;;;;;10.10;2.87;;;;;;;;;;4951868;28;20215;-67
2023/01/13 08:07:30;;;;;;;12.07;2.67;;;;;;;;;;4953814;28;20257;-67
2023/01/13 08:09:55;;;;;;;11.87;2.90;;;;;;;;;;4956409;28;20213;-67
2023/01/13 08:15:24;;;;;;;11.77;2.60;;;;;;;;;;4949042;28;20677;-67
2023/01/13 08:17:49;;;;;;;14.43;3.17;;;;;;;;;;4956294;28;20226;-66
2023/01/13 08:20:14;;;;;;;10.23;2.53;;;;;;;;;;4956472;28;20701;-67
2023/01/13 08:22:40;;;;;;;11.93;3.10;;;;;;;;;;4953908;28;20623;-67
2023/01/13 08:25:05;;;;;;;12.00;2.53;;;;;;;;;;4955799;28;20211;-65
2023/01/13 08:27:31;;;;;;;11.77;3.10;;;;;;;;;;4956906;28;20234;-65
2023/01/13 08:29:56;;;;;;;15.25;2.78;;;;;;;;;;4951573;28;20260;-64
2023/01/13 08:32:21;;;;;;;12.63;3.13;;;;;;;;;;4954550;28;20226;-65
2023/01/13 08:34:47;;;;;;;11.63;3.22;;;;;;;;;;4956673;28;20290;-65
2023/01/13 08:37:12;;;;;;;13.52;3.42;;;;;;;;;;4956778;28;20226;-65
2023/01/13 08:39:37;;;;;;;8.80;2.30;;;;;;;;;;4956020;28;20286;-64
2023/01/13 08:42:03;;;;;;;14.40;2.90;;;;;;;;;;4956507;28;20217;-64
2023/01/13 08:44:29;;;;;;;11.23;2.80;;;;;;;;;;4956506;28;20213;-64
2023/01/13 08:46:54;;;;;;;18.33;3.38;;;;;;;;;;4951769;28;20269;-64
2023/01/13 08:49:20;;;;;;;12.80;2.80;;;;;;;;;;4954793;28;20218;-64
2023/01/13 08:51:45;;;;;;;14.13;2.77;;;;;;;;;;4955945;28;20219;-66
2023/01/13 08:54:11;;;;;;;13.63;3.13;;;;;;;;;;4954278;28;20686;-65
2023/01/13 08:56:36;;;;;;;11.40;3.13;;;;;;;;;;4956304;28;20218;-64
2023/01/13 08:59:01;;;;;;;17.13;3.60;;;;;;;;;;4955736;28;20203;-63
2023/01/13 09:01:27;;;;;;;10.15;2.92;;;;;;;;;;4955777;28;20218;-65
2023/01/13 09:03:52;;;;;;;13.75;3.10;;;;;;;;;;4939097;29;20222;-65
2023/01/13 09:06:17;;;;;;;14.87;3.20;;;;;;;;;;4937717;28;20215;-66
2023/01/13 09:08:43;;;;;;;11.88;2.60;;;;;;;;;;4955703;28;20242;-65
2023/01/13 09:13:55;;;;;;;12.70;3.07;;;;;;;;;;4940770;29;20244;-65
2023/01/13 09:16:21;;;;;;;11.98;2.92;;;;;;;;;;4955728;28;20666;-65
2023/01/13 09:18:46;;;;;;;11.53;2.80;;;;;;;;;;4956362;28;20280;-65
2023/01/13 09:21:11;;;;;;;12.60;3.07;;;;;;;;;;4954526;28;20222;-65
2023/01/13 09:23:36;;;;;;;10.73;2.90;;;;;;;;;;4938894;29;20214;-65
2023/01/13 09:26:02;;;;;;;11.57;3.33;;;;;;;;;;4955533;28;20222;-65
2023/01/13 09:28:27;;;;;;;12.57;3.03;;;;;;;;;;4955428;28;20289;-65
2023/01/13 09:30:52;;;;;;;14.50;3.27;;;;;;;;;;4955968;28;20327;-65
2023/01/13 09:36:01;;;;;;;12.20;3.17;;;;;;;;;;4954635;28;20237;-65
2023/01/13 09:38:26;;;;;;;12.43;2.95;;;;;;;;;;4955747;28;20222;-65
2023/01/13 09:40:52;;;;;;;11.13;3.27;;;;;;;;;;4951246;28;20358;-65
2023/01/13 09:46:05;;;;;;;13.00;3.05;;;;;;;;;;4921799;29;20226;-65
2023/01/13 09:48:33;;;;;;;14.00;3.15;;;;;;;;;;4935797;29;20207;-65
2023/01/13 09:51:00;;;;;;;12.07;3.67;;;;;;;;;;4925114;29;20207;-65
2023/01/13 09:53:27;;;;;;;14.13;3.13;;;;;;;;;;4937724;29;20285;-65
2023/01/13 09:55:52;;;;;;;12.18;3.33;;;;;;;;;;4937633;29;20224;-65
2023/01/13 09:58:18;;;;;;;15.23;3.50;;;;;;;;;;4955168;28;20218;-65
2023/01/13 10:00:46;;;;;;;12.43;3.30;;;;;;;;;;4938531;29;20222;-65
2023/01/13 10:03:18;;;;;;;13.13;3.33;;;;;;;;;;4937060;28;20301;-65
2023/01/13 10:05:43;;;;;;;12.60;3.30;;;;;;;;;;4952629;28;20208;-65
2023/01/13 10:08:09;;;;;;;16.02;3.47;;;;;;;;;;4918358;29;20227;-65
2023/01/13 10:10:39;;;;;;;11.25;2.95;;;;;;;;;;4935366;29;20211;-65
2023/01/13 10:13:18;;;;;;;11.57;3.13;;;;;;;;;;4928689;29;20230;-66
2023/01/13 10:15:51;;;;;;;14.07;2.97;;;;;;;;;;4938439;29;20218;-66
2023/01/13 10:18:21;;;;;;;12.82;3.47;;;;;;;;;;4936740;29;20748;-66
2023/01/13 10:20:49;;;;;;;17.33;3.20;;;;;;;;;;4938119;29;20301;-66
2023/01/13 10:23:16;;;;;;;11.43;3.67;;;;;;;;;;4954180;29;20226;-66
2023/01/13 10:25:45;;;;;;;13.40;3.10;;;;;;;;;;4954144;29;20219;-66
2023/01/13 10:28:11;;;;;;;13.48;3.60;;;;;;;;;;4954446;29;20301;-66
2023/01/13 10:30:38;;;;;;;13.40;3.50;;;;;;;;;;4953902;28;20596;-66
2023/01/13 10:33:08;;;;;;;12.18;2.80;;;;;;;;;;4936636;29;20277;-66
2023/01/13 10:35:48;;;;;;;10.80;3.22;;;;;;;;;;4954781;28;20238;-66
2023/01/13 10:38:14;;;;;;;12.98;3.75;;;;;;;;;;4936350;29;20246;-66
2023/01/13 10:40:45;;;;;;;10.47;3.07;;;;;;;;;;4935142;29;20222;-66
2023/01/13 10:43:11;;;;;;;12.97;3.60;;;;;;;;;;4934925;29;20687;-66
2023/01/13 10:45:36;;;;;;;15.50;3.08;;;;;;;;;;4934803;29;20223;-66
2023/01/13 10:48:03;;;;;;;13.85;3.08;;;;;;;;;;4942161;28;20233;-66
2023/01/13 10:50:28;;;;;;;11.03;2.77;;;;;;;;;;4952908;28;20226;-66
2023/01/13 10:52:58;;;;;;;11.43;3.00;;;;;;;;;;4917466;29;20230;-66
2023/01/13 10:55:26;;;;;;;10.10;3.00;;;;;;;;;;4917700;29;20211;-66
2023/01/13 10:57:51;;;;;;;10.93;3.00;;;;;;;;;;4935270;29;20215;-66
2023/01/13 11:00:27;;;;;;;11.03;3.20;;;;;;;;;;4933969;29;20218;-66
2023/01/13 11:03:11;;;;;;;13.30;3.22;;;;;;;;;;4951401;28;20486;-66
2023/01/13 11:05:36;;;;;;;11.23;2.97;;;;;;;;;;4936117;29;20225;-66
2023/01/13 11:08:02;;;;;;;13.25;2.85;;;;;;;;;;4936171;28;20313;-65
2023/01/13 11:10:27;;;;;;;10.73;2.83;;;;;;;;;;4954245;28;20215;-66
2023/01/13 11:12:57;;;;;;;12.00;3.15;;;;;;;;;;4935579;29;20293;-65
2023/01/13 11:15:23;;;;;;;12.93;3.30;;;;;;;;;;4934056;28;20241;-66
2023/01/13 11:17:58;;;;;;;12.07;3.00;;;;;;;;;;4954140;28;20214;-67
2023/01/13 11:20:30;;;;;;;12.63;3.08;;;;;;;;;;4937007;28;20575;-66
2023/01/13 11:22:55;;;;;;;14.32;3.70;;;;;;;;;;4929450;29;20456;-65
2023/01/13 11:25:29;;;;;;;13.82;3.90;;;;;;;;;;4917494;29;20726;-66
2023/01/13 11:27:56;;;;;;;13.40;3.70;;;;;;;;;;4918044;29;20231;-65
2023/01/13 11:30:22;;;;;;;11.20;3.08;;;;;;;;;;4934444;29;20671;-65
2023/01/13 11:32:55;;;;;;;12.38;3.10;;;;;;;;;;4934951;29;20243;-66
2023/01/13 11:35:20;;;;;;;10.97;3.03;;;;;;;;;;4907976;28;21223;-65
2023/01/13 11:37:49;;;;;;;12.43;3.13;;;;;;;;;;4953990;28;20663;-65
2023/01/13 11:40:17;;;;;;;12.10;3.40;;;;;;;;;;4952365;28;20616;-65
2023/01/13 11:42:52;;;;;;;11.95;3.30;;;;;;;;;;4971714;28;20623;-65
2023/01/13 11:45:21;;;;;;;16.07;3.80;;;;;;;;;;4975671;28;20210;-65
2023/01/13 11:47:48;;;;;;;15.40;4.10;;;;;;;;;;4977247;28;20241;-65
2023/01/13 11:50:15;;;;;;;11.27;3.33;;;;;;;;;;4974840;28;20241;-65
2023/01/13 11:52:48;;;;;;;14.10;3.77;;;;;;;;;;4963629;28;20637;-65
2023/01/13 11:55:19;;;;;;;11.73;3.33;;;;;;;;;;4974327;28;20224;-66
2023/01/13 11:57:45;;;;;;;11.73;3.30;;;;;;;;;;4975113;28;20214;-65
2023/01/13 12:00:28;;;;;;;13.93;3.38;;;;;;;;;;4976838;28;20221;-65
2023/01/13 12:03:09;;;;;;;13.02;3.17;;;;;;;;;;4976322;28;20221;-65
2023/01/13 12:05:36;;;;;;;13.53;3.37;;;;;;;;;;4973864;28;20218;-66
2023/01/13 12:08:06;;;;;;;11.03;2.80;;;;;;;;;;4956972;28;20314;-66
2023/01/13 12:10:52;;;;;;;11.38;2.90;;;;;;;;;;4957015;28;20355;-66
2023/01/13 12:13:23;;;;;;;11.37;3.13;;;;;;;;;;4968730;28;20214;-65
2023/01/13 12:15:53;;;;;;;10.95;3.53;;;;;;;;;;4975763;28;20214;-66
2023/01/13 12:18:29;;;;;;;13.35;3.88;;;;;;;;;;4974472;28;20284;-65
2023/01/13 12:21:00;;;;;;;10.00;3.00;;;;;;;;;;4975409;28;20711;-65
2023/01/13 12:23:31;;;;;;;12.82;3.42;;;;;;;;;;4973955;28;20225;-65
2023/01/13 12:25:57;;;;;;;11.03;2.80;;;;;;;;;;4975425;28;20279;-65
2023/01/13 12:28:24;;;;;;;12.48;3.17;;;;;;;;;;4974793;28;20225;-65
2023/01/13 12:30:50;;;;;;;12.07;3.27;;;;;;;;;;4975976;28;20300;-65
2023/01/13 12:33:20;;;;;;;10.17;3.10;;;;;;;;;;4974811;28;20220;-66
2023/01/13 12:35:48;;;;;;;13.70;3.50;;;;;;;;;;4960903;28;20611;-66
2023/01/13 12:38:18;;;;;;;12.95;3.00;;;;;;;;;;4938316;29;20738;-66
2023/01/13 12:40:53;;;;;;;14.03;3.73;;;;;;;;;;4953706;29;20211;-66
2023/01/13 12:46:23;;;;;;;10.77;3.00;;;;;;;;;;4936551;29;20482;-69
2023/01/13 12:48:53;;;;;;;10.43;2.50;;;;;;;;;;4937360;29;20216;-66
2023/01/13 12:51:20;;;;;;;7.67;2.07;;;;;;;;;;4943610;28;20211;-67
2023/01/13 12:53:45;;;;;;;8.13;2.10;;;;;;;;;;4956282;28;20225;-66
2023/01/13 12:56:19;;;;;;;11.13;2.60;;;;;;;;;;4955554;28;20207;-66
2023/01/13 12:58:44;;;;;;;11.30;2.78;;;;;;;;;;4955386;28;20214;-66
2023/01/13 13:01:11;;;;;;;9.57;2.60;;;;;;;;;;4949519;28;20203;-66
2023/01/13 13:03:36;;;;;;;10.52;2.30;;;;;;;;;;4937380;29;20211;-66
2023/01/13 13:06:05;;;;;;;10.50;2.60;;;;;;;;;;4923871;28;20213;-66
2023/01/13 13:08:40;;;;;;;11.00;2.40;;;;;;;;;;4954270;29;20293;-66
2023/01/13 13:13:16;;;;;;;9.73;2.92;;;;;;;;;;4955813;29;20232;-66
2023/01/13 13:13:57;;;;;;;12.23;2.58;;;;;;;;;;4954878;29;20571;-66
2023/01/13 13:16:26;;;;;;;11.38;2.58;;;;;;;;;;4955523;29;20654;-66
2023/01/13 13:18:53;;;;;;;9.33;2.47;;;;;;;;;;4956169;29;20294;-66
2023/01/13 13:21:18;;;;;;;12.23;3.10;;;;;;;;;;4937682;29;20210;-66
2023/01/13 13:23:51;;;;;;;11.82;2.67;;;;;;;;;;4938816;29;20220;-66
2023/01/13 13:26:19;;;;;;;11.17;3.23;;;;;;;;;;4933197;28;20222;-66
2023/01/13 13:28:45;;;;;;;13.63;2.90;;;;;;;;;;4955575;28;20270;-66
2023/01/13 13:31:16;;;;;;;9.40;2.73;;;;;;;;;;4955123;28;20214;-66
2023/01/13 13:33:46;;;;;;;13.68;3.40;;;;;;;;;;4935291;29;20219;-66
2023/01/13 13:36:36;;;;;;;11.02;3.55;;;;;;;;;;4958622;28;20304;-66
2023/01/13 13:47:19;;;;;;;7.72;2.20;;;;;;;;;;4974527;28;20623;-66
2023/01/13 13:49:47;;;;;;;11.52;2.53;;;;;;;;;;4974020;28;20214;-66
2023/01/13 13:52:17;;;;;;;8.75;2.40;;;;;;;;;;4973948;28;20269;-66
2023/01/13 13:54:44;;;;;;;10.20;2.43;;;;;;;;;;4974287;28;20261;-66
2023/01/13 13:57:16;;;;;;;11.50;2.57;;;;;;;;;;4973300;28;20721;-66
2023/01/13 13:59:41;;;;;;;11.63;2.50;;;;;;;;;;4973386;28;20346;-66
2023/01/13 14:02:10;;;;;;;8.20;2.30;;;;;;;;;;4968988;28;20296;-66
2023/01/13 14:04:35;;;;;;;10.07;2.43;;;;;;;;;;4973239;28;20221;-66
2023/01/13 14:07:03;;;;;;;8.85;2.65;;;;;;;;;;4959747;28;20226;-66
2023/01/13 14:09:37;;;;;;;9.63;2.35;;;;;;;;;;4954561;28;20225;-66
2023/01/13 14:12:05;;;;;;;8.33;2.20;;;;;;;;;;4965536;28;20237;-66
2023/01/13 14:14:30;;;;;;;12.68;2.63;;;;;;;;;;4973362;28;20206;-67
2023/01/13 14:16:56;;;;;;;8.40;1.98;;;;;;;;;;4973872;28;20337;-66
2023/01/13 14:19:21;;;;;;;9.30;2.20;;;;;;;;;;4972580;28;20781;-66
2023/01/13 14:21:46;;;;;;;9.33;2.43;;;;;;;;;;4974189;28;20639;-65
2023/01/13 14:24:12;;;;;;;9.30;2.57;;;;;;;;;;4971898;28;20221;-66
2023/01/13 14:26:38;;;;;;;9.05;2.72;;;;;;;;;;4973064;28;20241;-66
2023/01/13 14:29:03;;;;;;;9.48;2.35;;;;;;;;;;4973346;28;20226;-65
2023/01/13 14:31:29;;;;;;;9.55;2.40;;;;;;;;;;4973529;28;20224;-65
2023/01/13 14:33:54;;;;;;;8.43;2.20;;;;;;;;;;4972912;28;20217;-66
2023/01/13 14:36:33;;;;;;;11.05;2.75;;;;;;;;;;4972148;28;20655;-66
2023/01/13 14:39:01;;;;;;;12.52;2.78;;;;;;;;;;4971981;28;20218;-66
2023/01/13 14:41:26;;;;;;;10.75;2.50;;;;;;;;;;4964957;28;20225;-65
2023/01/13 14:43:53;;;;;;;11.05;2.70;;;;;;;;;;4952776;28;20223;-65
2023/01/13 14:46:21;;;;;;;12.17;2.90;;;;;;;;;;4954056;28;20312;-66
2023/01/13 14:48:47;;;;;;;10.27;2.73;;;;;;;;;;4954703;28;20226;-66
2023/01/13 14:51:19;;;;;;;10.70;3.00;;;;;;;;;;4960768;28;20217;-65
2023/01/13 14:53:45;;;;;;;9.43;2.15;;;;;;;;;;4973801;28;20217;-65
2023/01/13 14:56:29;;;;;;;6.57;2.38;;;;;;;;;;4972346;28;20202;-65
2023/01/13 14:58:54;;;;;;;10.25;2.38;;;;;;;;;;4954378;28;20626;-65
2023/01/13 15:01:28;;;;;;;8.57;2.47;;;;;;;;;;4939627;28;20210;-65
2023/01/13 15:03:53;;;;;;;8.43;2.17;;;;;;;;;;4956446;28;20226;-65
2023/01/13 15:06:20;;;;;;;10.20;2.78;;;;;;;;;;4957238;28;20586;-65
2023/01/13 15:08:46;;;;;;;8.85;2.20;;;;;;;;;;4966997;28;20229;-65
2023/01/13 15:11:18;;;;;;;9.93;2.80;;;;;;;;;;4951535;28;20226;-65
2023/01/13 15:13:44;;;;;;;10.57;2.58;;;;;;;;;;4953210;28;20217;-65
2023/01/13 15:16:14;;;;;;;9.52;2.67;;;;;;;;;;4959635;28;20210;-65
2023/01/13 15:18:40;;;;;;;11.38;2.90;;;;;;;;;;4966488;28;20673;-65
2023/01/13 15:21:06;;;;;;;11.27;2.90;;;;;;;;;;4962746;28;20615;-65
2023/01/13 15:23:31;;;;;;;9.98;2.97;;;;;;;;;;4959582;28;20202;-65
2023/01/13 15:25:58;;;;;;;10.55;2.78;;;;;;;;;;4958844;28;20221;-65
2023/01/13 15:28:24;;;;;;;11.38;3.13;;;;;;;;;;4942428;28;20238;-65
2023/01/13 15:30:49;;;;;;;8.57;2.42;;;;;;;;;;4966987;28;20210;-65
2023/01/13 15:33:15;;;;;;;11.75;3.20;;;;;;;;;;4965488;28;20272;-65